Time;durP1;ratioP1;P1;durP2;ratioP2;P2;SDS_P1;SDS_P2;PMS_P1;PMS_P2;Temp;Humidity;BMP_temperature;BMP_pressure;BME280_temperature;BME280_humidity;BME280_pressure;Samples;Min_cycle;Max_cycle;Signal;HPM_P1;HPM_P2
2022/09/02 00:00:31;;;;;;;3.80;1.30;;;;;;;8.99;81.06;97112.23;107903;1271;22610;-78
2022/09/02 00:03:06;;;;;;;1.90;1.00;;;;;;;8.96;81.48;97112.12;107900;1271;22528;-78
2022/09/02 00:05:37;;;;;;;3.60;1.30;;;;;;;9.08;81.92;97107.85;107892;1271;22566;-78
2022/09/02 00:08:10;;;;;;;2.10;1.30;;;;;;;9.18;81.74;97107.18;107851;1271;29367;-78
2022/09/02 00:10:43;;;;;;;1.80;1.30;;;;;;;9.18;81.48;97100.14;107888;1271;22549;-78
2022/09/02 00:13:17;;;;;;;1.60;1.10;;;;;;;9.09;81.56;97101.83;107902;1271;22592;-78
2022/09/02 00:15:48;;;;;;;3.50;1.20;;;;;;;9.09;81.80;97100.30;107767;1274;22543;-78
2022/09/02 00:18:20;;;;;;;3.20;1.20;;;;;;;9.07;81.67;97102.51;107732;1271;36428;-78
2022/09/02 00:20:52;;;;;;;2.20;1.10;;;;;;;9.03;81.64;97098.99;107865;1271;22522;-78
2022/09/02 00:23:23;;;;;;;1.70;1.00;;;;;;;9.04;82.15;97098.27;107963;1271;23191;-78
2022/09/02 00:25:55;;;;;;;1.80;1.10;;;;;;;9.07;82.33;97098.75;107939;1271;25377;-78
2022/09/02 00:28:26;;;;;;;2.40;1.40;;;;;;;9.08;82.31;97099.34;107795;1271;27170;-78
2022/09/02 00:30:57;;;;;;;2.40;1.20;;;;;;;9.08;82.29;97102.52;107785;1271;22581;-78
2022/09/02 00:33:30;;;;;;;1.80;1.30;;;;;;;9.12;82.26;97101.20;107831;1271;22554;-78
2022/09/02 00:36:04;;;;;;;2.60;1.10;;;;;;;8.99;81.79;97103.15;107841;1271;25241;-78
2022/09/02 00:38:38;;;;;;;2.90;1.10;;;;;;;8.80;81.77;97098.69;107795;1271;26297;-78
2022/09/02 00:41:10;;;;;;;1.80;1.10;;;;;;;8.75;82.05;97096.14;107853;1271;22549;-78
2022/09/02 00:43:46;;;;;;;2.70;1.30;;;;;;;8.83;82.14;97095.05;107904;1271;22516;-78
2022/09/02 00:46:20;;;;;;;1.90;1.10;;;;;;;8.88;81.97;97092.73;107845;1274;22608;-78
2022/09/02 00:49:02;;;;;;;3.90;1.20;;;;;;;8.79;81.73;97092.50;107747;1274;25226;-78
2022/09/02 00:51:37;;;;;;;2.30;1.10;;;;;;;8.69;82.08;97089.20;107844;1271;22566;-78
2022/09/02 00:54:10;;;;;;;1.70;0.80;;;;;;;8.69;82.04;97088.73;107923;1271;22684;-78
2022/09/02 00:56:43;;;;;;;3.10;1.20;;;;;;;8.68;82.33;97088.98;107928;1271;22996;-78
2022/09/02 00:59:22;;;;;;;1.90;1.20;;;;;;;8.62;82.72;97082.34;107851;1271;29916;-78
2022/09/02 01:01:53;;;;;;;2.70;1.20;;;;;;;8.55;82.72;97078.48;107824;1269;25337;-78
2022/09/02 01:04:24;;;;;;;2.80;0.90;;;;;;;8.50;83.09;97081.04;107811;1271;22520;-78
2022/09/02 01:06:58;;;;;;;1.90;1.10;;;;;;;8.49;83.53;97080.82;107805;1271;25247;-78
2022/09/02 01:09:32;;;;;;;2.20;1.10;;;;;;;8.45;83.50;97082.58;107847;1271;22598;-78
2022/09/02 01:12:04;;;;;;;3.00;1.50;;;;;;;8.43;83.68;97084.88;107757;1271;22598;-78
2022/09/02 01:14:35;;;;;;;3.70;1.00;;;;;;;8.45;84.47;97081.84;107707;1271;22683;-78
2022/09/02 01:17:08;;;;;;;3.20;0.90;;;;;;;8.57;84.60;97083.31;107754;1271;33293;-78
2022/09/02 01:19:46;;;;;;;2.00;0.90;;;;;;;8.70;84.38;97084.34;107818;1271;22561;-78
2022/09/02 01:22:21;;;;;;;1.50;0.90;;;;;;;8.78;83.66;97085.41;107841;1271;25608;-78
2022/09/02 01:24:53;;;;;;;2.70;1.00;;;;;;;8.81;82.94;97084.10;107815;1271;22543;-78
2022/09/02 01:27:26;;;;;;;2.30;1.10;;;;;;;8.85;82.77;97090.58;107751;1271;24036;-78
2022/09/02 01:30:00;;;;;;;2.20;1.20;;;;;;;8.76;82.45;97089.04;107831;1271;22671;-77
2022/09/02 01:32:32;;;;;;;1.30;0.90;;;;;;;8.50;82.28;97087.59;107828;1271;22552;-77
2022/09/02 01:35:06;;;;;;;3.00;1.10;;;;;;;8.31;82.71;97085.84;107723;1271;22563;-78
2022/09/02 01:37:38;;;;;;;1.60;1.00;;;;;;;8.25;83.04;97087.23;107773;1271;41311;-78
2022/09/02 01:40:15;;;;;;;1.90;1.10;;;;;;;8.25;83.36;97086.41;107716;1271;22600;-77
2022/09/02 01:42:47;;;;;;;3.10;1.30;;;;;;;8.18;83.57;97088.36;107848;1271;22597;-78
2022/09/02 01:45:18;;;;;;;2.90;1.40;;;;;;;8.11;84.10;97092.82;107856;1271;23481;-78
2022/09/02 01:47:49;;;;;;;2.30;1.30;;;;;;;8.13;84.29;97091.89;107668;1274;26276;-78
2022/09/02 01:50:20;;;;;;;1.10;0.80;;;;;;;8.20;84.33;97089.44;107838;1271;22531;-78
2022/09/02 01:52:52;;;;;;;3.00;1.30;;;;;;;8.15;84.20;97089.33;107824;1271;22613;-78
2022/09/02 01:55:23;;;;;;;6.00;1.40;;;;;;;8.14;84.65;97088.09;107713;1274;23292;-77
2022/09/02 01:57:57;;;;;;;1.90;1.40;;;;;;;8.17;85.00;97085.08;107654;1271;26656;-77
2022/09/02 02:00:29;;;;;;;2.30;1.20;;;;;;;8.24;85.34;97090.89;107801;1271;25390;-77
2022/09/02 02:03:01;;;;;;;3.80;1.30;;;;;;;8.30;85.63;97087.02;107806;1271;24306;-77
2022/09/02 02:05:33;;;;;;;2.00;0.80;;;;;;;8.36;85.50;97087.90;107845;1271;22623;-77
2022/09/02 02:08:05;;;;;;;4.80;1.50;;;;;;;8.34;85.60;97085.71;107748;1271;24356;-77
2022/09/02 02:10:36;;;;;;;1.90;1.10;;;;;;;8.36;85.80;97085.31;107801;1271;23090;-77
2022/09/02 02:13:07;;;;;;;2.20;1.20;;;;;;;8.32;85.30;97081.83;107840;1271;22608;-78
2022/09/02 02:15:43;;;;;;;1.90;1.10;;;;;;;8.18;84.88;97079.73;107882;1271;22557;-78
2022/09/02 02:18:17;;;;;;;2.20;1.10;;;;;;;8.10;85.36;97084.84;107712;1271;38612;-78
2022/09/02 02:20:49;;;;;;;2.20;1.30;;;;;;;8.13;85.62;97081.64;107819;1271;24277;-78
2022/09/02 02:23:21;;;;;;;3.10;0.90;;;;;;;8.23;85.81;97082.90;107817;1271;22528;-78
2022/09/02 02:25:53;;;;;;;2.20;1.30;;;;;;;8.32;85.37;97080.23;107825;1271;22538;-78
2022/09/02 02:28:24;;;;;;;3.10;1.10;;;;;;;8.39;85.15;97075.83;107794;1271;25110;-78
2022/09/02 02:31:08;;;;;;;3.30;1.10;;;;;;;8.37;85.16;97077.07;107836;1271;22613;-78
2022/09/02 02:33:39;;;;;;;2.40;1.00;;;;;;;8.21;85.10;97073.74;107745;1271;22554;-78
2022/09/02 02:36:11;;;;;;;2.20;1.10;;;;;;;8.14;85.43;97076.69;107731;1271;22519;-78
2022/09/02 02:38:43;;;;;;;3.00;1.30;;;;;;;8.18;86.20;97071.50;107766;1271;33463;-78
2022/09/02 02:41:15;;;;;;;2.20;1.10;;;;;;;8.27;86.73;97068.77;107852;1271;22563;-78
2022/09/02 02:43:47;;;;;;;2.30;1.30;;;;;;;8.35;86.61;97068.13;107816;1271;22541;-78
2022/09/02 02:46:18;;;;;;;2.60;1.30;;;;;;;8.43;86.11;97070.52;107954;1271;22543;-78
2022/09/02 02:48:49;;;;;;;2.00;1.20;;;;;;;8.44;85.90;97067.31;107841;1271;29518;-78
2022/09/02 02:51:20;;;;;;;4.40;1.60;;;;;;;8.31;85.73;97067.18;107793;1271;22526;-78
2022/09/02 02:53:51;;;;;;;2.80;1.30;;;;;;;8.17;85.45;97066.11;107823;1271;23967;-78
2022/09/02 02:56:22;;;;;;;2.20;1.00;;;;;;;8.08;85.70;97065.81;107917;1271;22558;-78
2022/09/02 02:58:55;;;;;;;2.00;1.20;;;;;;;8.09;86.33;97061.28;107900;1271;28398;-78
2022/09/02 03:01:26;;;;;;;3.10;1.60;;;;;;;8.13;86.61;97059.09;107895;1271;22764;-78
2022/09/02 03:03:57;;;;;;;2.20;1.20;;;;;;;8.15;86.86;97060.79;107875;1271;22534;-78
2022/09/02 03:06:29;;;;;;;2.60;1.20;;;;;;;8.14;86.89;97064.70;107915;1271;22552;-78
2022/09/02 03:09:00;;;;;;;2.10;1.40;;;;;;;8.11;86.76;97063.83;107889;1271;24409;-78
2022/09/02 03:11:31;;;;;;;3.00;1.10;;;;;;;8.12;86.84;97065.48;107874;1271;25244;-78
2022/09/02 03:14:06;;;;;;;1.50;1.00;;;;;;;8.20;86.57;97064.23;107852;1271;24248;-78
2022/09/02 03:16:38;;;;;;;1.90;1.30;;;;;;;8.24;86.19;97068.80;107783;1271;22534;-77
2022/09/02 03:19:12;;;;;;;2.80;1.50;;;;;;;8.27;85.81;97063.96;107765;1271;22724;-78
2022/09/02 03:21:44;;;;;;;2.30;1.20;;;;;;;8.21;85.59;97063.60;107793;1271;26466;-78
2022/09/02 03:24:15;;;;;;;1.50;1.10;;;;;;;8.07;85.68;97058.79;107838;1271;22678;-78
2022/09/02 03:26:46;;;;;;;3.10;1.30;;;;;;;7.96;86.04;97058.52;107819;1271;22538;-78
2022/09/02 03:29:17;;;;;;;2.20;1.20;;;;;;;7.93;86.54;97058.92;107720;1271;31810;-77
2022/09/02 03:31:49;;;;;;;3.30;1.50;;;;;;;7.94;87.04;97062.15;107732;1271;22547;-77
2022/09/02 03:34:20;;;;;;;2.90;1.30;;;;;;;7.96;87.27;97067.82;107793;1271;23005;-77
2022/09/02 03:36:52;;;;;;;1.50;1.20;;;;;;;8.00;87.36;97066.05;107842;1271;22546;-77
2022/09/02 03:39:23;;;;;;;1.70;1.10;;;;;;;8.01;86.87;97069.92;107759;1271;33887;-77
2022/09/02 03:41:54;;;;;;;2.40;1.30;;;;;;;7.94;86.54;97071.86;108004;1271;22522;-77
2022/09/02 03:44:25;;;;;;;2.10;1.30;;;;;;;7.84;86.24;97076.34;107991;1271;22537;-77
2022/09/02 03:46:56;;;;;;;1.70;1.20;;;;;;;7.79;86.43;97076.63;108276;1268;22619;-77
2022/09/02 03:49:27;;;;;;;1.60;1.10;;;;;;;7.67;86.55;97072.22;108208;1268;31724;-77
2022/09/02 03:51:59;;;;;;;3.90;1.20;;;;;;;7.60;87.06;97070.48;108262;1268;22530;-77
2022/09/02 03:54:30;;;;;;;4.00;1.30;;;;;;;7.63;87.65;97072.03;108221;1268;22532;-77
2022/09/02 03:57:02;;;;;;;1.70;1.20;;;;;;;7.71;87.94;97072.79;108177;1268;22545;-76
2022/09/02 03:59:33;;;;;;;5.00;1.50;;;;;;;7.78;88.18;97075.61;108188;1268;25348;-76
2022/09/02 04:02:04;;;;;;;2.40;1.60;;;;;;;7.81;88.36;97078.91;108237;1268;22743;-77
2022/09/02 04:04:36;;;;;;;3.20;1.40;;;;;;;7.88;88.11;97084.00;108058;1268;24250;-77
2022/09/02 04:07:07;;;;;;;1.90;1.30;;;;;;;7.93;88.06;97084.31;108177;1268;25424;-77
2022/09/02 04:09:38;;;;;;;2.60;1.30;;;;;;;8.00;87.79;97085.85;108242;1268;22528;-76
2022/09/02 04:12:10;;;;;;;1.80;1.50;;;;;;;8.07;87.46;97088.52;108266;1268;22645;-77
2022/09/02 04:14:42;;;;;;;3.00;1.30;;;;;;;8.21;87.51;97089.27;108275;1268;23519;-77
2022/09/02 04:17:13;;;;;;;2.40;1.40;;;;;;;8.52;87.39;97087.87;108165;1268;31274;-77
2022/09/02 04:19:46;;;;;;;1.80;1.00;;;;;;;8.79;87.16;97086.74;108189;1268;22536;-77
2022/09/02 04:22:18;;;;;;;4.40;1.30;;;;;;;9.17;86.88;97090.30;108146;1268;22521;-77
2022/09/02 04:24:49;;;;;;;3.50;1.40;;;;;;;9.77;86.92;97089.41;108221;1268;22537;-76
2022/09/02 04:27:20;;;;;;;2.60;1.40;;;;;;;10.79;86.95;97091.30;108072;1268;29955;-77
2022/09/02 04:29:52;;;;;;;1.70;1.20;;;;;;;11.57;84.31;97091.42;108250;1268;22674;-77
2022/09/02 04:32:26;;;;;;;2.00;1.20;;;;;;;11.86;81.88;97092.96;108260;1267;22557;-77
2022/09/02 04:34:57;;;;;;;2.80;1.20;;;;;;;12.47;81.92;97094.52;108266;1268;23832;-77
2022/09/02 04:37:29;;;;;;;1.90;1.30;;;;;;;13.51;80.81;97094.38;107142;1268;1397327;-77
2022/09/02 04:40:01;;;;;;;2.60;1.30;;;;;;;14.01;77.60;97092.36;108151;1268;22540;-76
2022/09/02 04:42:35;;;;;;;2.70;1.30;;;;;;;14.19;76.46;97095.20;108137;1268;22589;-77
2022/09/02 04:45:10;;;;;;;2.70;1.40;;;;;;;14.61;75.61;97095.13;108155;1268;22534;-77
2022/09/02 04:47:41;;;;;;;2.30;1.30;;;;;;;15.44;75.71;97097.16;108107;1268;28827;-77
2022/09/02 04:50:13;;;;;;;2.10;1.20;;;;;;;16.44;74.28;97089.03;108090;1268;22531;-77
2022/09/02 04:52:44;;;;;;;3.00;1.20;;;;;;;17.33;73.05;97092.50;108140;1268;24012;-78
2022/09/02 04:55:15;;;;;;;2.10;1.30;;;;;;;18.32;71.96;97088.05;108143;1267;23144;-75
2022/09/02 04:57:47;;;;;;;2.60;1.30;;;;;;;19.24;69.34;97088.84;108074;1268;27927;-76
2022/09/02 05:00:18;;;;;;;3.20;1.30;;;;;;;19.83;67.34;97088.52;108088;1268;22521;-76
2022/09/02 05:02:50;;;;;;;2.40;1.50;;;;;;;20.44;65.48;97084.49;108021;1268;25453;-76
2022/09/02 05:05:21;;;;;;;1.70;1.30;;;;;;;21.09;63.48;97085.92;108183;1268;24219;-74
2022/09/02 05:07:55;;;;;;;2.70;1.30;;;;;;;21.75;62.34;97086.07;108187;1268;37161;-76
2022/09/02 05:10:27;;;;;;;2.90;1.50;;;;;;;22.47;59.99;97083.89;108261;1268;25410;-76
2022/09/02 05:12:59;;;;;;;2.80;1.40;;;;;;;23.15;58.33;97080.41;108161;1268;25232;-77
2022/09/02 05:15:30;;;;;;;2.90;1.20;;;;;;;23.45;56.28;97080.84;108137;1268;26573;-76
2022/09/02 05:18:01;;;;;;;3.40;1.70;;;;;;;24.11;55.58;97077.88;108080;1268;28843;-77
2022/09/02 05:20:32;;;;;;;3.20;1.30;;;;;;;24.28;53.51;97077.86;108152;1267;22535;-75
2022/09/02 05:23:04;;;;;;;3.50;1.50;;;;;;;24.16;53.12;97082.31;108151;1268;25369;-77
2022/09/02 05:25:36;;;;;;;2.30;1.40;;;;;;;23.84;52.00;97081.36;108058;1268;22544;-77
2022/09/02 05:28:08;;;;;;;2.30;1.60;;;;;;;23.90;51.60;97082.66;108065;1268;25414;-77
2022/09/02 05:30:42;;;;;;;2.30;1.50;;;;;;;23.98;50.08;97082.67;107893;1268;22531;-77
2022/09/02 05:33:16;;;;;;;3.20;1.70;;;;;;;23.63;49.37;97080.36;108039;1267;25397;-77
2022/09/02 05:35:47;;;;;;;2.80;1.40;;;;;;;23.47;49.19;97082.50;108030;1268;22534;-77
2022/09/02 05:38:19;;;;;;;3.40;1.50;;;;;;;23.87;49.26;97077.73;107721;1268;33303;-77
2022/09/02 05:40:50;;;;;;;2.70;1.50;;;;;;;24.39;48.41;97071.03;108024;1268;25362;-77
2022/09/02 05:43:22;;;;;;;4.70;1.60;;;;;;;25.24;48.36;97068.83;107974;1268;22545;-77
2022/09/02 05:45:53;;;;;;;2.80;1.70;;;;;;;26.47;47.26;97068.00;108043;1268;22534;-78
2022/09/02 05:51:14;;;;;;;3.50;1.70;;;;;;;28.59;44.32;97067.91;108003;1267;22537;-78
2022/09/02 05:53:46;;;;;;;4.50;2.30;;;;;;;29.18;42.74;97065.89;108046;1268;22682;-78
2022/09/02 05:56:17;;;;;;;3.50;1.80;;;;;;;29.41;41.67;97068.17;108014;1268;22582;-78
2022/09/02 05:58:48;;;;;;;4.10;2.10;;;;;;;29.78;41.05;97068.71;107902;1267;32792;-78
2022/09/02 06:01:20;;;;;;;3.20;1.70;;;;;;;30.12;40.24;97071.77;108026;1268;25363;-78
2022/09/02 06:03:52;;;;;;;3.00;1.90;;;;;;;30.48;38.89;97068.62;108067;1268;25313;-76
2022/09/02 06:06:23;;;;;;;5.00;2.40;;;;;;;30.41;38.14;97068.11;108010;1268;22533;-75
2022/09/02 06:08:54;;;;;;;4.50;1.70;;;;;;;30.61;37.55;97068.73;107957;1268;30037;-77
2022/09/02 06:11:25;;;;;;;4.60;2.30;;;;;;;30.55;35.86;97069.54;108016;1268;24768;-77
2022/09/02 06:13:56;;;;;;;2.50;1.80;;;;;;;30.29;36.17;97070.41;108037;1268;22541;-76
2022/09/02 06:16:27;;;;;;;4.60;2.40;;;;;;;30.57;36.19;97069.92;107947;1268;22527;-76
2022/09/02 06:18:59;;;;;;;3.60;2.00;;;;;;;31.40;35.95;97069.50;107957;1268;27644;-76
2022/09/02 06:21:30;;;;;;;3.60;2.10;;;;;;;32.34;35.29;97071.37;107989;1268;22634;-76
2022/09/02 07:45:02;;;;;;;1.90;1.60;;;;;;;36.04;26.14;97077.17;104418;1309;545125;-76
2022/09/02 07:47:33;;;;;;;2.10;1.70;;;;;;;34.69;24.47;97079.81;107387;1280;34250;-76
2022/09/02 07:50:05;;;;;;;2.50;1.70;;;;;;;33.18;26.00;97081.43;107327;1282;22534;-76
2022/09/02 07:52:36;;;;;;;2.70;1.50;;;;;;;33.66;26.87;97078.08;107308;1281;22591;-76
2022/09/02 07:55:09;;;;;;;2.40;1.50;;;;;;;34.79;27.16;97075.86;106990;1281;22654;-76
2022/09/02 07:57:40;;;;;;;3.90;1.60;;;;;;;35.99;26.43;97075.40;105998;1278;1636163;-76
2022/09/02 08:00:15;;;;;;;3.30;1.60;;;;;;;36.77;25.81;97075.46;107466;1277;25429;-75
2022/09/02 08:02:46;;;;;;;2.40;1.60;;;;;;;36.79;24.51;97078.40;107474;1277;22565;-75
2022/09/02 08:05:18;;;;;;;3.10;1.90;;;;;;;36.24;24.89;97071.89;107412;1277;22650;-75
2022/09/02 08:07:49;;;;;;;2.90;1.90;;;;;;;36.73;25.43;97076.12;107389;1278;35132;-75
2022/09/02 08:10:23;;;;;;;4.00;1.80;;;;;;;37.36;24.57;97076.05;107471;1277;25419;-75
2022/09/02 08:12:56;;;;;;;3.20;1.60;;;;;;;37.78;23.15;97073.41;107484;1277;22531;-76
2022/09/02 08:15:30;;;;;;;2.90;1.60;;;;;;;37.55;24.02;97074.31;107458;1277;22663;-76
2022/09/02 08:18:02;;;;;;;2.30;1.70;;;;;;;38.14;23.76;97069.47;107383;1277;30794;-77
2022/09/02 08:20:34;;;;;;;2.80;1.90;;;;;;;37.90;23.08;97073.05;107493;1277;24336;-78
2022/09/02 08:23:07;;;;;;;1.90;1.80;;;;;;;37.34;24.07;97070.40;107550;1277;24452;-78
2022/09/02 08:25:39;;;;;;;2.30;1.90;;;;;;;37.99;23.69;97069.60;107606;1276;22580;-78
2022/09/02 08:28:11;;;;;;;4.20;1.70;;;;;;;38.33;23.65;97066.27;107548;1276;40781;-75
2022/09/02 08:30:42;;;;;;;4.00;2.00;;;;;;;38.13;22.55;97072.41;107457;1276;22698;-74
2022/09/02 08:33:19;;;;;;;2.40;1.80;;;;;;;37.38;23.57;97068.70;107778;1273;22521;-74
2022/09/02 08:35:51;;;;;;;3.00;1.90;;;;;;;36.65;23.94;97067.13;107734;1273;25242;-74
2022/09/02 08:38:22;;;;;;;2.60;1.70;;;;;;;37.30;24.22;97059.55;107637;1273;27484;-74
2022/09/02 08:40:53;;;;;;;5.00;1.80;;;;;;;37.73;24.00;97059.45;107638;1273;22539;-73
2022/09/02 08:43:38;;;;;;;2.70;1.70;;;;;;;37.06;23.69;97059.98;107605;1271;22783;-74
2022/09/02 08:46:13;;;;;;;4.40;1.80;;;;;;;37.50;24.47;97060.88;107577;1273;25361;-74
2022/09/02 08:48:51;;;;;;;3.50;2.00;;;;;;;38.19;24.09;97057.38;107493;1273;45357;-74
2022/09/02 08:51:30;;;;;;;2.60;1.60;;;;;;;37.26;23.33;97056.99;107225;1272;22571;-74
2022/09/02 08:54:06;;;;;;;4.50;1.90;;;;;;;34.73;24.30;97054.77;107776;1268;25313;-74
2022/09/02 08:56:37;;;;;;;3.60;2.00;;;;;;;32.63;25.84;97057.03;107900;1269;25354;-75
2022/09/02 08:59:11;;;;;;;2.40;1.60;;;;;;;30.97;26.93;97053.89;107943;1268;29375;-73
2022/09/02 09:01:51;;;;;;;4.30;2.10;;;;;;;29.28;27.99;97050.66;108023;1268;24347;-74
2022/09/02 09:04:35;;;;;;;3.60;1.30;;;;;;;27.88;29.44;97051.11;108018;1268;22598;-74
2022/09/02 09:07:29;;;;;;;1.50;1.20;;;;;;;27.02;30.65;97048.33;107956;1268;33655;-75
2022/09/02 09:10:14;;;;;;;2.50;1.30;;;;;;;26.62;31.67;97049.92;108088;1268;23333;-73
2022/09/02 09:13:00;;;;;;;2.40;1.00;;;;;;;27.28;31.70;97050.98;108041;1268;22559;-73
2022/09/02 09:15:40;;;;;;;2.60;1.40;;;;;;;27.34;31.30;97045.12;108064;1268;22619;-73
2022/09/02 09:18:14;;;;;;;4.90;1.20;;;;;;;26.25;31.66;97044.19;107986;1268;37375;-73
2022/09/02 09:20:47;;;;;;;3.20;1.40;;;;;;;25.48;32.34;97042.40;108011;1268;22678;-73
2022/09/02 09:23:32;;;;;;;3.10;1.20;;;;;;;24.61;32.83;97044.19;107993;1269;22574;-75
2022/09/02 09:26:09;;;;;;;2.50;0.90;;;;;;;23.11;33.79;97049.83;107984;1269;25221;-75
2022/09/02 09:28:43;;;;;;;2.10;1.20;;;;;;;22.24;34.99;97048.66;107864;1268;31894;-75
2022/09/02 09:31:17;;;;;;;1.60;0.80;;;;;;;21.65;35.99;97045.20;107928;1269;22515;-74
2022/09/02 09:33:59;;;;;;;2.70;1.20;;;;;;;21.19;37.10;97041.42;107983;1268;22541;-74
2022/09/02 09:36:54;;;;;;;2.40;1.10;;;;;;;20.85;37.80;97041.83;108085;1268;22599;-74
2022/09/02 09:39:29;;;;;;;2.70;0.90;;;;;;;20.84;38.85;97041.98;107997;1268;33492;-73
2022/09/02 09:42:02;;;;;;;3.40;1.00;;;;;;;20.79;38.76;97044.48;108008;1269;22679;-73
2022/09/02 09:44:45;;;;;;;2.80;1.00;;;;;;;20.55;38.62;97045.27;108061;1268;25922;-73
2022/09/02 09:47:22;;;;;;;2.00;1.00;;;;;;;20.29;39.31;97041.02;108017;1268;31070;-73
2022/09/02 09:50:08;;;;;;;1.10;1.00;;;;;;;20.22;39.50;97038.44;108032;1268;25419;-73
2022/09/02 09:52:41;;;;;;;1.70;0.70;;;;;;;20.02;39.83;97039.21;108017;1268;25256;-73
2022/09/02 09:55:18;;;;;;;2.00;0.90;;;;;;;20.18;40.17;97038.92;108055;1268;22542;-73
2022/09/02 09:57:52;;;;;;;1.60;0.90;;;;;;;20.28;40.34;97035.67;107932;1268;29427;-74
2022/09/02 10:00:30;;;;;;;1.70;0.90;;;;;;;20.19;40.36;97034.50;107951;1269;23420;-74
2022/09/02 10:03:04;;;;;;;1.20;1.00;;;;;;;20.13;40.85;97030.29;107919;1269;23235;-73
2022/09/02 10:05:37;;;;;;;4.10;0.90;;;;;;;20.26;40.56;97026.52;108017;1270;24231;-73
2022/09/02 10:08:22;;;;;;;2.10;1.10;;;;;;;20.15;40.79;97025.39;107913;1268;35508;-74
2022/09/02 10:11:07;;;;;;;2.50;0.90;;;;;;;19.92;40.48;97030.52;107920;1269;22544;-73
2022/09/02 10:13:39;;;;;;;2.10;1.10;;;;;;;19.61;40.96;97028.12;107927;1269;22544;-73
2022/09/02 10:16:21;;;;;;;1.90;1.30;;;;;;;19.38;41.63;97027.12;107988;1268;25319;-73
2022/09/02 10:18:57;;;;;;;2.50;1.40;;;;;;;19.24;41.79;97026.58;107842;1269;29192;-74
2022/09/02 10:21:43;;;;;;;4.20;0.90;;;;;;;19.15;42.00;97027.04;107864;1269;24242;-74
2022/09/02 10:24:30;;;;;;;1.80;1.10;;;;;;;19.12;42.67;97026.98;107805;1269;22545;-74
2022/09/02 10:27:07;;;;;;;2.90;1.60;;;;;;;18.87;43.19;97021.30;107965;1269;23439;-73
2022/09/02 10:29:55;;;;;;;3.20;1.10;;;;;;;18.79;43.83;97014.91;107874;1269;22525;-73
2022/09/02 10:32:45;;;;;;;2.50;1.20;;;;;;;18.94;43.86;97012.11;107850;1269;22622;-73
2022/09/02 10:35:22;;;;;;;1.60;1.00;;;;;;;19.04;44.35;97015.58;107891;1269;23880;-73
2022/09/02 10:38:06;;;;;;;3.40;1.70;;;;;;;19.14;43.88;97021.04;107973;1269;65488;-72
2022/09/02 10:40:44;;;;;;;3.60;1.30;;;;;;;19.25;44.06;97026.23;108070;1268;22541;-73
2022/09/02 10:43:33;;;;;;;2.50;1.30;;;;;;;19.42;44.31;97017.38;108012;1270;24158;-74
2022/09/02 10:46:09;;;;;;;3.60;1.70;;;;;;;19.27;44.07;97019.84;107970;1268;22883;-75
2022/09/02 10:48:53;;;;;;;3.10;1.50;;;;;;;18.84;44.49;97018.18;107873;1269;34225;-74
2022/09/02 10:51:35;;;;;;;2.70;1.40;;;;;;;18.75;45.72;97022.51;107928;1270;22684;-73
2022/09/02 10:54:19;;;;;;;3.00;1.30;;;;;;;18.67;45.16;97021.38;107849;1270;23228;-73
2022/09/02 10:56:57;;;;;;;4.40;1.50;;;;;;;18.35;45.61;97016.96;107891;1269;22553;-72
2022/09/02 10:59:34;;;;;;;3.80;1.50;;;;;;;18.30;45.55;97012.52;107858;1269;26646;-72
2022/09/02 11:02:12;;;;;;;2.00;1.20;;;;;;;18.20;45.53;97013.83;107969;1269;22532;-72
2022/09/02 11:04:48;;;;;;;2.20;1.30;;;;;;;18.15;45.74;97006.88;107936;1269;22903;-73
2022/09/02 11:07:24;;;;;;;1.60;1.00;;;;;;;18.28;45.96;97010.51;107886;1268;28627;-73
2022/09/02 11:10:00;;;;;;;3.10;1.30;;;;;;;18.30;46.16;97015.42;107999;1268;23290;-73
2022/09/02 11:12:37;;;;;;;3.60;1.10;;;;;;;18.45;46.17;97019.06;108017;1270;22601;-73
2022/09/02 11:15:17;;;;;;;1.90;1.20;;;;;;;18.53;46.20;97021.55;108059;1268;22508;-73
2022/09/02 11:17:54;;;;;;;2.50;1.20;;;;;;;18.59;46.49;97013.45;108024;1268;43125;-73
2022/09/02 11:20:33;;;;;;;2.70;1.20;;;;;;;18.60;46.39;97010.29;108079;1268;22541;-73
2022/09/02 11:23:16;;;;;;;2.00;1.00;;;;;;;18.63;46.76;97007.73;108163;1268;22524;-73
2022/09/02 11:25:54;;;;;;;2.10;1.30;;;;;;;18.58;45.93;97003.02;108184;1267;22607;-73
2022/09/02 11:28:33;;;;;;;3.20;1.10;;;;;;;18.52;45.86;97001.08;107993;1268;25534;-73
2022/09/02 11:31:10;;;;;;;3.10;1.50;;;;;;;18.45;45.61;97000.02;108114;1267;22522;-73
2022/09/02 11:33:53;;;;;;;4.20;1.50;;;;;;;18.35;45.05;96999.15;108162;1268;25238;-74
2022/09/02 11:36:24;;;;;;;5.20;1.20;;;;;;;17.87;44.91;96995.20;108158;1266;22534;-73
2022/09/02 11:39:03;;;;;;;2.80;1.10;;;;;;;17.63;46.02;96992.30;108058;1267;28261;-73
2022/09/02 11:41:48;;;;;;;1.60;1.00;;;;;;;17.74;46.04;96991.26;108121;1267;22546;-72
2022/09/02 11:44:40;;;;;;;3.00;1.40;;;;;;;17.69;46.61;96990.86;108202;1267;24218;-73
2022/09/02 11:47:31;;;;;;;1.80;1.50;;;;;;;17.69;46.73;96992.35;108132;1268;52866;-72
2022/09/02 11:50:34;;;;;;;3.20;1.50;;;;;;;17.87;47.34;96990.13;108160;1268;22538;-73
2022/09/02 11:53:18;;;;;;;2.20;1.40;;;;;;;18.17;47.34;96994.56;108077;1268;24157;-73
2022/09/02 11:55:55;;;;;;;4.20;1.30;;;;;;;18.40;46.82;96995.54;108153;1267;22537;-73
2022/09/02 11:58:38;;;;;;;2.30;1.80;;;;;;;18.41;46.60;96995.19;108040;1268;37224;-74
2022/09/02 12:01:27;;;;;;;2.20;1.10;;;;;;;18.56;47.57;96994.29;107912;1269;22520;-73
2022/09/02 12:04:04;;;;;;;2.80;1.40;;;;;;;18.80;46.68;96992.30;108059;1269;25438;-73
2022/09/02 12:06:35;;;;;;;2.30;1.60;;;;;;;18.65;46.10;96991.90;108067;1269;22587;-77
2022/09/02 12:09:11;;;;;;;3.60;1.50;;;;;;;18.37;46.68;96988.98;107947;1269;30024;-76
2022/09/02 12:11:48;;;;;;;1.80;1.40;;;;;;;18.35;46.51;96985.95;107693;1268;22541;-76
2022/09/02 12:14:59;;;;;;;3.20;1.50;;;;;;;18.28;46.56;96982.83;107923;1268;22544;-76
2022/09/02 12:18:12;;;;;;;2.60;1.20;;;;;;;18.23;46.21;96981.55;107965;1269;31186;-77
2022/09/02 12:21:11;;;;;;;1.80;1.10;;;;;;;18.18;46.32;96977.44;108029;1270;22524;-76
2022/09/02 12:24:17;;;;;;;3.00;1.30;;;;;;;18.19;45.84;96976.45;107980;1269;22547;-77
2022/09/02 12:27:11;;;;;;;1.20;1.00;;;;;;;18.13;45.98;96972.76;107972;1269;22798;-77
2022/09/02 12:29:44;;;;;;;2.00;1.10;;;;;;;18.08;46.43;96970.15;107989;1270;22590;-77
2022/09/02 12:33:03;;;;;;;3.00;1.40;;;;;;;18.06;46.35;96970.91;107975;1269;22735;-77
2022/09/02 12:35:50;;;;;;;2.40;1.30;;;;;;;18.04;45.85;96964.63;107940;1270;25439;-77
2022/09/02 12:38:37;;;;;;;3.20;1.20;;;;;;;18.00;46.41;96965.34;107949;1268;22529;-73
2022/09/02 12:41:23;;;;;;;1.90;0.90;;;;;;;18.04;46.60;96964.95;107666;1268;22660;-74
2022/09/02 12:44:10;;;;;;;2.40;1.70;;;;;;;18.13;46.66;96965.30;107733;1269;22621;-75
2022/09/02 12:47:06;;;;;;;3.30;1.40;;;;;;;18.06;46.03;96960.59;107750;1268;25212;-74
2022/09/02 12:49:48;;;;;;;3.10;1.30;;;;;;;17.91;45.74;96956.23;108137;1269;25373;-74
2022/09/02 12:52:46;;;;;;;2.00;1.00;;;;;;;17.82;46.43;96959.04;107907;1269;25378;-74
2022/09/02 12:55:26;;;;;;;2.80;1.20;;;;;;;17.88;46.47;96954.48;107967;1269;22507;-74
2022/09/02 12:58:09;;;;;;;1.20;0.90;;;;;;;17.94;46.39;96955.77;107904;1269;31775;-74
2022/09/02 13:00:57;;;;;;;1.80;0.90;;;;;;;18.00;46.30;96949.34;108058;1269;22551;-73
2022/09/02 13:03:45;;;;;;;2.80;1.00;;;;;;;18.03;46.39;96944.55;108023;1269;22567;-73
2022/09/02 13:06:25;;;;;;;2.10;1.10;;;;;;;18.05;46.18;96947.05;108003;1269;25968;-72
2022/09/02 13:09:35;;;;;;;1.70;0.90;;;;;;;18.11;46.50;96940.39;107950;1269;30014;-73
2022/09/02 13:12:41;;;;;;;3.80;1.70;;;;;;;18.09;45.85;96941.60;107995;1269;22538;-73
2022/09/02 13:15:28;;;;;;;2.30;1.20;;;;;;;18.11;46.14;96942.02;107946;1270;22611;-73
2022/09/02 13:18:30;;;;;;;2.40;0.90;;;;;;;18.13;45.72;96942.61;108009;1270;30075;-73
2022/09/02 13:21:22;;;;;;;1.10;0.70;;;;;;;18.00;45.38;96941.20;107797;1270;25356;-73
2022/09/02 13:24:22;;;;;;;3.10;1.10;;;;;;;17.88;45.23;96940.09;107919;1269;22555;-73
2022/09/02 13:27:09;;;;;;;2.50;1.30;;;;;;;17.81;45.37;96939.99;108070;1269;23176;-73
2022/09/02 13:30:05;;;;;;;1.90;0.90;;;;;;;17.82;45.78;96938.35;108011;1269;22630;-74
2022/09/02 13:32:38;;;;;;;3.10;1.20;;;;;;;17.75;45.65;96940.14;108070;1269;22526;-73
2022/09/02 13:35:19;;;;;;;4.20;0.80;;;;;;;17.76;46.01;96942.05;107954;1270;26387;-73